createdAt,value
2022-09-22T00:01:31.997Z,2.88
2022-09-22T00:04:03.443Z,2.42
2022-09-22T00:06:34.289Z,3.10
2022-09-22T00:09:02.178Z,3.47
2022-09-22T00:11:36.415Z,2.83
2022-09-22T00:14:10.229Z,2.20
2022-09-22T00:16:58.738Z,2.88
2022-09-22T00:19:29.329Z,3.38
2022-09-22T00:21:56.848Z,2.53
2022-09-22T00:24:24.781Z,2.42
2022-09-22T00:26:55.229Z,2.47
2022-09-22T00:29:23.497Z,2.20
2022-09-22T00:31:51.242Z,2.35
2022-09-22T00:34:21.192Z,2.83
2022-09-22T00:36:48.919Z,2.30
2022-09-22T00:39:17.472Z,2.57
2022-09-22T00:41:47.243Z,2.33
2022-09-22T00:44:26.565Z,5.32
2022-09-22T00:47:15.613Z,2.65
2022-09-22T00:49:51.904Z,2.08
2022-09-22T00:52:42.689Z,2.78
2022-09-22T00:55:44.265Z,2.17
2022-09-22T00:58:15.717Z,2.47
2022-09-22T01:00:44.107Z,2.08
2022-09-22T01:03:19.822Z,2.85
2022-09-22T01:05:50.784Z,2.08
2022-09-22T01:08:19.730Z,2.08
2022-09-22T01:10:48.954Z,2.13
2022-09-22T01:13:36.927Z,1.80
2022-09-22T01:16:14.593Z,1.73
2022-09-22T01:19:09.482Z,1.83
2022-09-22T01:21:51.665Z,1.73
2022-09-22T01:24:46.613Z,2.38
2022-09-22T01:27:51.552Z,1.70
2022-09-22T01:30:31.052Z,1.75
2022-09-22T01:33:28.505Z,2.00
2022-09-22T01:36:13.581Z,1.90
2022-09-22T01:39:19.153Z,1.60
2022-09-22T01:41:48.903Z,2.47
2022-09-22T01:44:49.271Z,1.58
2022-09-22T01:47:24.433Z,2.78
2022-09-22T01:49:58.111Z,2.33
2022-09-22T01:52:31.552Z,1.60
2022-09-22T01:55:27.430Z,1.83
2022-09-22T01:58:00.592Z,2.45
2022-09-22T02:00:27.975Z,1.80
2022-09-22T02:03:09.677Z,1.50
2022-09-22T02:05:45.650Z,2.47
2022-09-22T02:08:18.037Z,1.70
2022-09-22T02:10:48.006Z,1.50
2022-09-22T02:13:15.573Z,1.42
2022-09-22T02:16:02.133Z,1.60
2022-09-22T02:18:32.508Z,1.30
2022-09-22T02:21:00.068Z,1.55
2022-09-22T02:23:28.455Z,1.65
2022-09-22T02:25:55.784Z,2.30
2022-09-22T02:28:24.237Z,3.15
2022-09-22T02:31:18.511Z,1.52
2022-09-22T02:33:42.634Z,1.70
2022-09-22T02:36:19.095Z,1.75
2022-09-22T02:39:06.721Z,2.47
2022-09-22T02:42:10.273Z,2.25
2022-09-22T02:44:47.459Z,1.90
2022-09-22T02:47:22.642Z,1.50
2022-09-22T02:49:51.340Z,1.80
2022-09-22T02:54:46.430Z,1.42
2022-09-22T02:57:13.711Z,2.10
2022-09-22T02:59:40.605Z,2.00
2022-09-22T03:02:07.542Z,1.63
2022-09-22T03:04:34.709Z,1.85
2022-09-22T03:07:01.688Z,1.83
2022-09-22T03:09:28.786Z,1.70
2022-09-22T03:11:55.787Z,2.65
2022-09-22T03:14:22.731Z,1.60
2022-09-22T03:16:49.664Z,2.22
2022-09-22T03:19:16.715Z,2.03
2022-09-22T03:21:43.991Z,2.13
2022-09-22T03:24:11.011Z,2.00
2022-09-22T03:26:38.161Z,2.38
2022-09-22T03:29:05.224Z,1.83
2022-09-22T03:31:32.488Z,2.45
2022-09-22T03:33:59.636Z,3.88
2022-09-22T03:36:26.726Z,3.00
2022-09-22T03:38:53.722Z,2.50
2022-09-22T03:41:20.898Z,1.73
2022-09-22T03:43:47.894Z,2.50
2022-09-22T03:46:14.906Z,1.80
2022-09-22T03:48:45.144Z,6.20
2022-09-22T03:51:12.791Z,2.45
2022-09-22T03:53:39.880Z,2.20
2022-09-22T03:56:12.712Z,2.13
2022-09-22T03:58:40.625Z,2.33
2022-09-22T04:01:08.892Z,1.83
2022-09-22T04:03:36.591Z,2.03
2022-09-22T04:06:04.538Z,2.50
2022-09-22T04:08:31.526Z,1.83
2022-09-22T04:11:00.066Z,2.72
2022-09-22T04:15:54.514Z,1.90
2022-09-22T04:18:22.099Z,2.60
2022-09-22T04:20:49.093Z,2.33
2022-09-22T04:23:17.435Z,2.75
2022-09-22T04:25:44.387Z,2.78
2022-09-22T04:28:11.428Z,2.28
2022-09-22T04:30:38.435Z,2.38
2022-09-22T04:33:05.458Z,2.45
2022-09-22T04:35:33.331Z,2.92
2022-09-22T04:38:00.837Z,3.00
2022-09-22T04:40:27.927Z,2.92
2022-09-22T04:42:54.993Z,3.42
2022-09-22T04:45:21.919Z,3.17
2022-09-22T04:47:50.555Z,3.17
2022-09-22T04:52:50.060Z,2.80
2022-09-22T04:55:17.432Z,3.55
2022-09-22T04:57:55.395Z,2.88
2022-09-22T05:00:25.004Z,4.30
2022-09-22T05:02:52.151Z,4.00
2022-09-22T05:05:19.553Z,3.85
2022-09-22T05:07:49.571Z,4.13
2022-09-22T05:10:20.576Z,3.92
2022-09-22T05:12:47.755Z,3.50
2022-09-22T05:15:15.547Z,3.58
2022-09-22T05:17:47.490Z,3.78
2022-09-22T05:20:15.262Z,3.17
2022-09-22T05:22:43.145Z,4.23
2022-09-22T05:25:12.426Z,3.50
2022-09-22T05:27:53.226Z,4.15
2022-09-22T05:30:22.334Z,4.22
2022-09-22T05:32:49.487Z,4.45
2022-09-22T05:35:26.077Z,4.22
2022-09-22T05:37:54.082Z,4.03
2022-09-22T05:40:24.095Z,4.18
2022-09-22T05:42:52.706Z,3.92
2022-09-22T05:45:21.023Z,4.70
2022-09-22T05:47:48.348Z,5.30
2022-09-22T05:50:17.142Z,5.55
2022-09-22T05:52:44.276Z,4.90
2022-09-22T05:55:12.647Z,4.72
2022-09-22T05:57:40.095Z,5.63
2022-09-22T06:00:08.711Z,4.72
2022-09-22T06:02:45.819Z,5.38
2022-09-22T06:05:16.669Z,6.50
2022-09-22T06:07:45.389Z,5.50
2022-09-22T06:10:12.800Z,5.50
2022-09-22T06:12:40.167Z,5.55
2022-09-22T06:15:07.723Z,4.72
2022-09-22T06:17:34.915Z,6.18
2022-09-22T06:20:01.976Z,6.25
2022-09-22T06:22:29.070Z,6.25
2022-09-22T06:24:59.814Z,5.85
2022-09-22T06:27:27.024Z,5.88
2022-09-22T06:29:55.420Z,7.63
2022-09-22T06:34:49.463Z,5.63
2022-09-22T06:37:17.060Z,5.60
2022-09-22T06:39:43.963Z,7.03
2022-09-22T06:42:11.009Z,5.68
2022-09-22T06:44:37.995Z,6.13
2022-09-22T06:47:12.499Z,6.25
2022-09-22T06:49:39.661Z,6.07
2022-09-22T06:52:06.929Z,5.60
2022-09-22T06:54:33.899Z,6.15
2022-09-22T06:57:01.842Z,6.57
2022-09-22T06:59:29.037Z,6.05
2022-09-22T07:01:57.248Z,5.82
2022-09-22T07:04:24.500Z,5.50
2022-09-22T07:06:51.532Z,6.45
2022-09-22T07:09:18.570Z,7.07
2022-09-22T07:11:47.775Z,7.10
2022-09-22T07:14:15.637Z,6.50
2022-09-22T07:16:43.225Z,7.32
2022-09-22T07:19:10.522Z,6.20
2022-09-22T07:21:37.887Z,7.40
2022-09-22T07:24:09.806Z,6.35
2022-09-22T07:26:39.215Z,6.45
2022-09-22T07:29:11.808Z,6.65
2022-09-22T07:31:41.025Z,7.88
2022-09-22T07:34:08.137Z,7.10
2022-09-22T07:36:37.271Z,7.93
2022-09-22T07:39:12.979Z,5.53
2022-09-22T07:41:44.661Z,8.68
2022-09-22T07:44:32.289Z,6.45
2022-09-22T07:47:00.023Z,7.18
2022-09-22T07:49:27.208Z,8.33
2022-09-22T07:51:55.539Z,7.60
2022-09-22T07:54:23.550Z,6.75
2022-09-22T07:56:56.499Z,7.05
2022-09-22T07:59:23.650Z,6.35
2022-09-22T08:01:51.676Z,7.15
2022-09-22T08:04:23.004Z,6.38
2022-09-22T08:06:55.759Z,6.43
2022-09-22T08:09:24.410Z,5.70
2022-09-22T08:14:24.136Z,6.40
2022-09-22T08:16:53.881Z,7.28
2022-09-22T08:19:23.394Z,6.15
2022-09-22T08:21:54.684Z,8.23
2022-09-22T08:24:22.915Z,6.30
2022-09-22T08:26:53.448Z,5.85
2022-09-22T08:29:21.132Z,4.85
2022-09-22T08:31:49.700Z,5.27
2022-09-22T08:34:18.516Z,5.18
2022-09-22T08:36:48.844Z,5.75
2022-09-22T08:39:18.443Z,5.03
2022-09-22T08:41:48.343Z,4.78
2022-09-22T08:44:23.033Z,4.55
2022-09-22T08:46:52.157Z,4.85
2022-09-22T08:49:46.332Z,4.43
2022-09-22T08:52:32.472Z,4.38
2022-09-22T08:55:02.084Z,5.57
2022-09-22T08:57:41.351Z,4.45
2022-09-22T09:00:21.091Z,3.88
2022-09-22T09:03:16.387Z,4.45
2022-09-22T09:06:16.255Z,4.65
2022-09-22T09:09:05.349Z,3.78
2022-09-22T09:11:42.732Z,3.58
2022-09-22T09:14:37.071Z,3.22
2022-09-22T09:17:15.464Z,3.50
2022-09-22T09:22:36.113Z,3.25
2022-09-22T09:25:24.580Z,3.58
2022-09-22T09:28:06.361Z,3.38
2022-09-22T09:30:43.676Z,3.20
2022-09-22T09:33:23.823Z,3.25
2022-09-22T09:36:02.723Z,3.80
2022-09-22T09:38:35.577Z,6.20
2022-09-22T09:41:09.845Z,4.13
2022-09-22T09:43:58.103Z,5.57
2022-09-22T09:46:40.117Z,2.40
2022-09-22T09:49:37.016Z,2.90
2022-09-22T09:52:09.696Z,5.00
2022-09-22T09:54:37.719Z,4.90
2022-09-22T09:57:09.926Z,3.20
2022-09-22T09:59:58.358Z,4.10
2022-09-22T10:02:28.750Z,3.35
2022-09-22T10:05:10.270Z,2.42
2022-09-22T10:07:46.431Z,4.50
2022-09-22T10:10:43.039Z,4.50
2022-09-22T10:13:20.123Z,2.97
2022-09-22T10:16:18.847Z,3.17
2022-09-22T10:18:46.910Z,3.10
2022-09-22T10:21:22.373Z,2.70
2022-09-22T10:23:54.067Z,3.00
2022-09-22T10:26:28.696Z,2.58
2022-09-22T10:29:08.424Z,2.65
2022-09-22T10:31:39.137Z,3.25
2022-09-22T10:34:27.913Z,3.35
2022-09-22T10:36:55.185Z,4.82
2022-09-22T10:39:32.359Z,3.38
2022-09-22T10:42:06.292Z,3.38
2022-09-22T10:44:39.447Z,2.95
2022-09-22T10:47:31.437Z,3.47
2022-09-22T10:50:23.251Z,3.10
2022-09-22T10:53:26.476Z,4.20
2022-09-22T10:56:08.747Z,3.25
2022-09-22T10:58:45.184Z,3.20
2022-09-22T11:01:27.584Z,3.78
2022-09-22T11:04:16.748Z,3.15
2022-09-22T11:07:40.205Z,3.65
2022-09-22T11:10:53.389Z,2.58
2022-09-22T11:13:31.469Z,3.22
2022-09-22T11:16:17.179Z,4.13
2022-09-22T11:19:13.559Z,3.45
2022-09-22T11:22:11.506Z,3.38
2022-09-22T11:27:54.199Z,5.43
2022-09-22T11:30:23.068Z,3.10
2022-09-22T11:33:22.566Z,3.22
2022-09-22T11:36:08.504Z,3.08
2022-09-22T11:38:35.553Z,2.90
2022-09-22T11:41:26.984Z,2.20
2022-09-22T11:44:15.596Z,4.13
2022-09-22T11:47:01.382Z,4.70
2022-09-22T11:49:57.427Z,2.58
2022-09-22T11:52:43.790Z,3.58
2022-09-22T11:55:24.964Z,2.30
2022-09-22T11:57:57.370Z,2.55
2022-09-22T12:00:24.608Z,2.72
2022-09-22T12:03:02.904Z,3.08
2022-09-22T12:05:43.746Z,1.75
2022-09-22T12:08:23.605Z,2.15
2022-09-22T12:10:52.012Z,3.40
2022-09-22T12:13:31.070Z,2.47
2022-09-22T12:16:18.569Z,2.33
2022-09-22T12:19:21.853Z,2.67
2022-09-22T12:22:25.725Z,3.20
2022-09-22T12:24:52.627Z,3.58
2022-09-22T12:27:27.674Z,2.35
2022-09-22T12:30:20.283Z,2.30
2022-09-22T12:32:50.819Z,2.00
2022-09-22T12:35:31.048Z,2.50
2022-09-22T12:38:01.568Z,2.28
2022-09-22T12:40:41.614Z,2.20
2022-09-22T12:43:16.226Z,3.65
2022-09-22T12:45:44.003Z,5.25
2022-09-22T12:48:36.151Z,3.13
2022-09-22T12:51:25.387Z,3.88
2022-09-22T12:54:12.805Z,2.42
2022-09-22T12:56:46.540Z,2.28
2022-09-22T12:59:35.403Z,2.97
2022-09-22T13:02:11.605Z,2.80
2022-09-22T13:04:38.698Z,1.85
2022-09-22T13:07:38.697Z,2.78
2022-09-22T13:10:25.104Z,3.45
2022-09-22T13:13:05.780Z,3.30
2022-09-22T13:15:49.475Z,2.70
2022-09-22T13:18:37.377Z,2.80
2022-09-22T13:21:14.568Z,5.05
2022-09-22T13:24:02.762Z,3.45
2022-09-22T13:29:11.012Z,3.65
2022-09-22T13:31:51.145Z,3.58
2022-09-22T13:34:21.206Z,2.33
2022-09-22T13:36:49.910Z,4.13
2022-09-22T13:39:21.006Z,2.55
2022-09-22T13:41:53.811Z,3.15
2022-09-22T13:44:29.594Z,3.08
2022-09-22T13:46:59.884Z,3.03
2022-09-22T13:49:42.752Z,3.05
2022-09-22T13:52:31.430Z,2.72
2022-09-22T13:55:04.245Z,2.55
2022-09-22T13:57:35.133Z,2.72
2022-09-22T14:00:02.755Z,3.47
2022-09-22T14:02:32.568Z,2.72
2022-09-22T14:05:05.967Z,2.80
2022-09-22T14:07:45.029Z,2.80
2022-09-22T14:10:19.544Z,3.13
2022-09-22T14:12:47.097Z,3.03
2022-09-22T14:15:43.881Z,2.70
2022-09-22T14:18:21.778Z,2.38
2022-09-22T14:20:49.036Z,3.22
2022-09-22T14:23:27.706Z,3.25
2022-09-22T14:26:00.645Z,3.03
2022-09-22T14:28:36.518Z,2.50
2022-09-22T14:31:13.756Z,3.80
2022-09-22T14:33:44.169Z,2.35
2022-09-22T14:36:21.020Z,2.45
2022-09-22T14:39:03.832Z,2.80
2022-09-22T14:41:38.079Z,2.28
2022-09-22T14:44:35.566Z,4.25
2022-09-22T14:47:25.860Z,2.58
2022-09-22T14:50:11.908Z,2.65
2022-09-22T14:52:46.364Z,2.80
2022-09-22T14:55:42.469Z,4.57
2022-09-22T14:58:36.234Z,2.45
2022-09-22T15:01:31.372Z,2.37
2022-09-22T15:04:02.834Z,2.50
2022-09-22T15:06:36.569Z,3.55
2022-09-22T15:09:05.259Z,2.70
2022-09-22T15:12:31.817Z,2.90
2022-09-22T15:14:59.747Z,2.90
2022-09-22T15:18:02.431Z,3.45
2022-09-22T15:20:48.331Z,3.80
2022-09-22T15:23:32.425Z,3.38
2022-09-22T15:26:04.094Z,2.80
2022-09-22T15:28:37.961Z,3.17
2022-09-22T15:31:06.123Z,2.70
2022-09-22T15:33:33.236Z,2.92
2022-09-22T15:36:10.855Z,2.90
2022-09-22T15:38:38.902Z,6.20
2022-09-22T15:41:06.020Z,3.55
2022-09-22T15:43:33.260Z,4.32
2022-09-22T15:46:06.306Z,3.80
2022-09-22T15:48:35.125Z,2.53
2022-09-22T15:51:08.466Z,3.42
2022-09-22T15:53:35.880Z,2.88
2022-09-22T15:56:06.237Z,2.83
2022-09-22T15:58:37.290Z,2.72
2022-09-22T16:01:05.430Z,2.40
2022-09-22T16:03:38.986Z,2.72
2022-09-22T16:06:15.665Z,3.03
2022-09-22T16:08:46.219Z,3.40
2022-09-22T16:11:16.266Z,2.75
2022-09-22T16:13:43.282Z,3.15
2022-09-22T16:16:10.951Z,3.55
2022-09-22T16:18:39.659Z,2.33
2022-09-22T16:21:22.865Z,5.40
2022-09-22T16:23:50.037Z,2.72
2022-09-22T16:26:16.951Z,3.03
2022-09-22T16:28:44.023Z,3.90
2022-09-22T16:31:11.835Z,3.92
2022-09-22T16:33:38.956Z,3.15
2022-09-22T16:36:06.099Z,3.28
2022-09-22T16:38:34.543Z,3.15
2022-09-22T16:41:07.007Z,3.50
2022-09-22T16:43:34.016Z,4.10
2022-09-22T16:46:19.545Z,2.65
2022-09-22T16:48:46.639Z,3.55
2022-09-22T16:51:18.183Z,3.38
2022-09-22T16:53:52.608Z,3.28
2022-09-22T16:56:29.897Z,3.70
2022-09-22T16:58:57.468Z,3.30
2022-09-22T17:01:24.708Z,3.67
2022-09-22T17:03:54.988Z,5.75
2022-09-22T17:06:25.381Z,4.05
2022-09-22T17:08:53.743Z,4.15
2022-09-22T17:11:24.208Z,4.45
2022-09-22T17:13:51.309Z,3.80
2022-09-22T17:16:25.515Z,4.35
2022-09-22T17:18:54.186Z,4.25
2022-09-22T17:21:22.067Z,5.13
2022-09-22T17:24:00.484Z,4.47
2022-09-22T17:26:40.860Z,5.60
2022-09-22T17:29:08.485Z,5.18
2022-09-22T17:31:36.663Z,5.03
2022-09-22T17:34:03.865Z,5.43
2022-09-22T17:36:31.085Z,6.25
2022-09-22T17:39:00.660Z,4.57
2022-09-22T17:41:31.616Z,4.57
2022-09-22T17:44:01.410Z,3.90
2022-09-22T17:46:33.891Z,3.75
2022-09-22T17:49:19.387Z,3.33
2022-09-22T17:52:09.440Z,3.63
2022-09-22T17:54:58.139Z,3.38
2022-09-22T17:57:32.085Z,2.75
2022-09-22T17:59:59.283Z,2.97
2022-09-22T18:02:28.875Z,2.63
2022-09-22T18:04:55.855Z,2.90
2022-09-22T18:07:26.243Z,3.75
2022-09-22T18:09:56.823Z,2.97
2022-09-22T18:12:25.489Z,2.60
2022-09-22T18:14:55.409Z,4.72
2022-09-22T18:17:26.618Z,2.78
2022-09-22T18:19:55.718Z,4.03
2022-09-22T18:22:23.985Z,4.15
2022-09-22T18:24:58.285Z,3.50
2022-09-22T18:27:27.167Z,3.53
2022-09-22T18:29:58.590Z,4.95
2022-09-22T18:32:27.671Z,4.00
2022-09-22T18:34:55.357Z,3.67
2022-09-22T18:37:23.647Z,5.90
2022-09-22T18:39:50.733Z,7.53
2022-09-22T18:42:19.830Z,6.72
2022-09-22T18:44:47.296Z,6.22
2022-09-22T18:47:19.826Z,4.53
2022-09-22T18:49:53.441Z,4.47
2022-09-22T18:52:24.801Z,3.90
2022-09-22T18:54:54.439Z,4.75
2022-09-22T18:57:28.467Z,3.85
2022-09-22T19:00:01.586Z,3.25
2022-09-22T19:02:29.794Z,3.28
2022-09-22T19:04:57.091Z,3.60
2022-09-22T19:07:42.643Z,3.22
2022-09-22T19:10:20.910Z,3.40
2022-09-22T19:12:55.845Z,2.90
2022-09-22T19:15:24.935Z,3.17
2022-09-22T19:17:54.449Z,4.35
2022-09-22T19:20:24.026Z,3.25
2022-09-22T19:22:52.977Z,2.92
2022-09-22T19:25:21.873Z,3.00
2022-09-22T19:27:51.016Z,3.20
2022-09-22T19:30:22.400Z,3.45
2022-09-22T19:32:51.369Z,3.38
2022-09-22T19:35:19.634Z,4.57
2022-09-22T19:37:47.059Z,3.70
2022-09-22T19:40:18.882Z,3.80
2022-09-22T19:42:46.933Z,4.53
2022-09-22T19:45:14.831Z,3.38
2022-09-22T19:47:42.202Z,3.88
2022-09-22T19:50:09.439Z,3.15
2022-09-22T19:52:38.278Z,3.47
2022-09-22T19:55:09.149Z,4.53
2022-09-22T19:57:41.735Z,3.35
2022-09-22T20:00:17.343Z,3.67
2022-09-22T20:02:45.144Z,3.47
2022-09-22T20:05:21.275Z,3.72
2022-09-22T20:07:53.586Z,3.92
2022-09-22T20:10:25.944Z,4.05
2022-09-22T20:12:53.395Z,5.03
2022-09-22T20:15:20.522Z,4.57
2022-09-22T20:17:50.159Z,5.05
2022-09-22T20:20:27.042Z,5.25
2022-09-22T20:23:02.558Z,4.40
2022-09-22T20:25:32.160Z,4.13
2022-09-22T20:27:59.212Z,4.38
2022-09-22T20:30:27.500Z,4.35
2022-09-22T20:32:54.563Z,6.28
2022-09-22T20:35:22.233Z,9.65
2022-09-22T20:37:49.483Z,11.13
2022-09-22T20:40:21.512Z,6.90
2022-09-22T20:42:49.763Z,7.47
2022-09-22T20:45:18.680Z,7.63
2022-09-22T20:47:45.684Z,6.05
2022-09-22T20:50:12.715Z,5.80
2022-09-22T20:52:43.181Z,5.80
2022-09-22T20:55:11.361Z,5.10
2022-09-22T20:57:39.026Z,4.80
2022-09-22T21:00:24.351Z,4.27
2022-09-22T21:02:52.416Z,4.10
2022-09-22T21:05:20.730Z,4.35
2022-09-22T21:07:47.793Z,4.70
2022-09-22T21:10:33.332Z,5.88
2022-09-22T21:13:02.367Z,5.93
2022-09-22T21:15:30.021Z,6.13
2022-09-22T21:17:57.025Z,4.90
2022-09-22T21:20:24.121Z,4.85
2022-09-22T21:22:56.601Z,5.05
2022-09-22T21:25:25.091Z,4.15
2022-09-22T21:30:19.217Z,4.00
2022-09-22T21:32:46.173Z,5.25
2022-09-22T21:35:16.713Z,3.80
2022-09-22T21:37:44.724Z,3.50
2022-09-22T21:40:11.951Z,2.80
2022-09-22T21:42:39.001Z,3.30
2022-09-22T21:45:06.415Z,2.65
2022-09-22T21:47:33.400Z,2.85
2022-09-22T21:50:00.337Z,2.83
2022-09-22T21:52:27.270Z,2.83
2022-09-22T21:54:56.195Z,2.45
2022-09-22T21:57:23.441Z,2.25
2022-09-22T21:59:52.883Z,2.10
2022-09-22T22:02:23.258Z,1.90
2022-09-22T22:04:50.197Z,2.28
2022-09-22T22:07:17.470Z,1.90
2022-09-22T22:09:44.466Z,2.00
2022-09-22T22:12:12.813Z,2.10
2022-09-22T22:14:40.167Z,2.10
2022-09-22T22:17:07.195Z,1.92
2022-09-22T22:19:34.506Z,3.75
2022-09-22T22:22:01.640Z,2.30
2022-09-22T22:24:29.142Z,2.10
2022-09-22T22:27:02.792Z,2.00
2022-09-22T22:29:34.622Z,2.05
2022-09-22T22:32:06.247Z,2.63
2022-09-22T22:34:33.498Z,2.95
2022-09-22T22:37:00.772Z,3.03
2022-09-22T22:39:27.953Z,2.03
2022-09-22T22:41:55.341Z,2.20
2022-09-22T22:44:22.781Z,2.17
2022-09-22T22:46:49.743Z,2.35
2022-09-22T22:49:16.767Z,2.13
2022-09-22T22:51:44.010Z,1.95
2022-09-22T22:54:12.058Z,2.50
2022-09-22T22:56:42.396Z,2.00
2022-09-22T22:59:11.244Z,2.20
2022-09-22T23:01:38.532Z,2.20
2022-09-22T23:04:08.011Z,2.47
2022-09-22T23:06:41.980Z,2.60
2022-09-22T23:09:12.918Z,2.70
2022-09-22T23:11:40.322Z,2.60
2022-09-22T23:14:11.465Z,2.35
2022-09-22T23:16:43.260Z,2.55
2022-09-22T23:19:13.286Z,2.28
2022-09-22T23:21:40.529Z,2.40
2022-09-22T23:24:08.379Z,2.17
2022-09-22T23:26:37.344Z,2.00
2022-09-22T23:29:05.270Z,2.22
2022-09-22T23:31:32.616Z,2.08
2022-09-22T23:33:59.845Z,1.88
2022-09-22T23:36:28.847Z,1.70
2022-09-22T23:38:57.577Z,1.70
2022-09-22T23:41:24.585Z,1.40
2022-09-22T23:43:51.646Z,1.48
2022-09-22T23:46:19.987Z,1.77
2022-09-22T23:48:47.573Z,2.25
2022-09-22T23:51:15.022Z,1.80
2022-09-22T23:53:42.103Z,1.50
2022-09-22T23:56:09.297Z,1.75
2022-09-22T23:58:38.109Z,1.50
